createdAt,value
2023-01-31T00:00:36.719Z,30.50
2023-01-31T00:03:04.680Z,28.60
2023-01-31T00:05:32.675Z,31.60
2023-01-31T00:08:01.638Z,32.50
2023-01-31T00:10:30.101Z,30.30
2023-01-31T00:12:58.552Z,30.90
2023-01-31T00:15:26.823Z,32.70
2023-01-31T00:17:55.262Z,30.30
2023-01-31T00:20:23.694Z,30.30
2023-01-31T00:22:51.743Z,30.60
2023-01-31T00:25:20.483Z,30.90
2023-01-31T00:27:49.030Z,30.80
2023-01-31T00:30:17.291Z,32.30
2023-01-31T00:32:46.159Z,31.40
2023-01-31T00:35:14.245Z,32.50
2023-01-31T00:37:44.555Z,31.70
2023-01-31T00:40:14.873Z,36.20
2023-01-31T00:42:44.401Z,36.00
2023-01-31T00:45:12.605Z,31.20
2023-01-31T00:47:41.145Z,37.00
2023-01-31T00:50:15.851Z,35.80
2023-01-31T00:52:44.156Z,35.40
2023-01-31T00:55:12.261Z,33.50
2023-01-31T00:57:40.794Z,35.90
2023-01-31T01:00:09.449Z,33.20
2023-01-31T01:02:38.186Z,33.30
2023-01-31T01:05:06.740Z,34.30
2023-01-31T01:07:36.626Z,31.60
2023-01-31T01:10:05.956Z,33.90
2023-01-31T01:12:34.734Z,34.90
2023-01-31T01:15:04.064Z,32.90
2023-01-31T01:17:32.732Z,35.60
2023-01-31T01:20:03.918Z,34.30
2023-01-31T01:22:34.306Z,34.20
2023-01-31T01:25:03.193Z,33.40
2023-01-31T01:27:32.588Z,34.30
2023-01-31T01:30:02.227Z,34.40
2023-01-31T01:32:30.898Z,33.20
2023-01-31T01:34:58.956Z,31.90
2023-01-31T01:37:27.099Z,33.80
2023-01-31T01:39:55.101Z,31.90
2023-01-31T01:42:25.628Z,33.20
2023-01-31T01:44:54.659Z,31.30
2023-01-31T01:47:37.636Z,31.00
2023-01-31T01:50:34.242Z,32.30
2023-01-31T01:53:06.943Z,30.00
2023-01-31T01:55:41.986Z,30.70
2023-01-31T01:58:14.947Z,29.00
2023-01-31T02:00:44.512Z,29.10
2023-01-31T02:03:12.726Z,32.90
2023-01-31T02:05:56.612Z,34.20
2023-01-31T02:08:26.631Z,31.50
2023-01-31T02:10:57.493Z,31.00
2023-01-31T02:13:26.192Z,30.40
2023-01-31T02:15:55.402Z,30.10
2023-01-31T02:18:24.601Z,29.70
2023-01-31T02:21:14.357Z,31.00
2023-01-31T02:24:10.083Z,32.50
2023-01-31T02:27:09.917Z,28.80
2023-01-31T02:30:09.253Z,31.60
2023-01-31T02:32:53.006Z,30.10
2023-01-31T02:35:27.424Z,30.10
2023-01-31T02:38:02.921Z,27.30
2023-01-31T02:40:46.689Z,34.30
2023-01-31T02:43:24.230Z,32.40
2023-01-31T02:46:04.404Z,31.00
2023-01-31T02:48:35.326Z,31.00
2023-01-31T02:51:15.697Z,29.50
2023-01-31T02:53:58.695Z,32.10
2023-01-31T02:56:31.399Z,29.00
2023-01-31T02:59:22.360Z,32.50
2023-01-31T03:01:56.917Z,31.00
2023-01-31T03:04:25.122Z,32.20
2023-01-31T03:07:05.716Z,30.40
2023-01-31T03:09:44.834Z,33.00
2023-01-31T03:12:14.605Z,33.80
2023-01-31T03:15:08.858Z,34.50
2023-01-31T03:17:58.919Z,36.10
2023-01-31T03:20:32.973Z,35.70
2023-01-31T03:23:04.096Z,38.20
2023-01-31T03:25:34.411Z,34.70
2023-01-31T03:28:09.374Z,32.00
2023-01-31T03:30:39.150Z,31.80
2023-01-31T03:33:29.978Z,31.60
2023-01-31T03:36:06.830Z,32.60
2023-01-31T03:38:35.420Z,31.80
2023-01-31T03:41:17.505Z,32.90
2023-01-31T03:44:01.082Z,33.20
2023-01-31T03:46:33.189Z,31.10
2023-01-31T03:49:02.255Z,31.90
2023-01-31T03:51:32.447Z,32.50
2023-01-31T03:54:04.616Z,30.80
2023-01-31T03:56:43.331Z,32.10
2023-01-31T03:59:14.339Z,31.40
2023-01-31T04:01:48.994Z,29.60
2023-01-31T04:04:30.368Z,32.00
2023-01-31T04:07:00.397Z,32.90
2023-01-31T04:09:28.464Z,34.50
2023-01-31T04:11:58.452Z,34.50
2023-01-31T04:14:26.442Z,33.10
2023-01-31T04:16:54.413Z,35.10
2023-01-31T04:19:22.453Z,33.00
2023-01-31T04:21:50.472Z,33.60
2023-01-31T04:24:18.430Z,32.50
2023-01-31T04:26:47.025Z,34.40
2023-01-31T04:29:15.113Z,35.90
2023-01-31T04:31:43.217Z,35.10
2023-01-31T04:34:11.729Z,36.90
2023-01-31T04:36:40.700Z,36.90
2023-01-31T04:39:11.128Z,36.80
2023-01-31T04:41:39.880Z,41.80
2023-01-31T04:44:08.090Z,44.80
2023-01-31T04:46:36.588Z,46.10
2023-01-31T04:49:04.714Z,43.60
2023-01-31T04:51:32.976Z,38.60
2023-01-31T04:54:01.105Z,36.00
2023-01-31T04:56:29.148Z,37.00
2023-01-31T04:58:57.211Z,34.70
2023-01-31T05:01:25.869Z,36.80
2023-01-31T05:03:54.387Z,41.50
2023-01-31T05:06:24.236Z,39.80
2023-01-31T05:08:54.631Z,36.00
2023-01-31T05:11:22.689Z,37.60
2023-01-31T05:13:53.147Z,38.40
2023-01-31T05:16:21.480Z,37.50
2023-01-31T05:18:51.076Z,39.80
2023-01-31T05:21:22.618Z,38.80
2023-01-31T05:23:51.128Z,38.00
2023-01-31T05:26:19.385Z,39.60
2023-01-31T05:28:48.209Z,35.50
2023-01-31T05:31:17.151Z,33.80
2023-01-31T05:33:46.573Z,31.60
2023-01-31T05:36:14.973Z,36.00
2023-01-31T05:38:42.994Z,34.30
2023-01-31T05:41:10.949Z,32.90
2023-01-31T05:43:38.977Z,33.80
2023-01-31T05:46:07.089Z,33.80
2023-01-31T05:48:38.289Z,36.80
2023-01-31T05:51:07.030Z,39.40
2023-01-31T05:53:35.127Z,37.00
2023-01-31T05:56:03.078Z,35.00
2023-01-31T05:58:31.352Z,35.80
2023-01-31T06:00:59.839Z,37.10
2023-01-31T06:03:28.124Z,38.40
2023-01-31T06:05:57.492Z,44.30
2023-01-31T06:08:25.564Z,39.10
2023-01-31T06:10:55.122Z,40.80
2023-01-31T06:13:23.655Z,38.90
2023-01-31T06:15:52.359Z,40.80
2023-01-31T06:18:20.839Z,39.30
2023-01-31T06:20:49.447Z,38.50
2023-01-31T06:23:20.027Z,44.50
2023-01-31T06:25:51.603Z,42.00
2023-01-31T06:28:20.320Z,45.20
2023-01-31T06:30:48.814Z,46.20
2023-01-31T06:33:16.922Z,44.40
2023-01-31T06:35:45.779Z,48.90
2023-01-31T06:38:16.410Z,49.50
2023-01-31T06:40:45.384Z,50.80
2023-01-31T06:43:19.344Z,51.60
2023-01-31T06:45:49.706Z,49.20
2023-01-31T06:48:28.035Z,44.10
2023-01-31T06:50:56.815Z,45.00
2023-01-31T06:53:25.054Z,42.90
2023-01-31T06:55:53.932Z,46.90
2023-01-31T06:58:22.107Z,51.00
2023-01-31T07:00:50.194Z,47.10
2023-01-31T07:03:19.549Z,50.10
2023-01-31T07:05:48.832Z,51.00
2023-01-31T07:08:17.319Z,48.90
2023-01-31T07:10:48.446Z,47.30
2023-01-31T07:13:16.579Z,42.30
2023-01-31T07:15:45.129Z,58.50
2023-01-31T07:18:33.492Z,57.40
2023-01-31T07:21:02.164Z,51.00
2023-01-31T07:23:32.479Z,51.90
2023-01-31T07:26:03.748Z,43.40
2023-01-31T07:28:32.703Z,40.00
2023-01-31T07:31:05.937Z,39.50
2023-01-31T07:33:35.708Z,42.50
2023-01-31T07:36:04.813Z,39.60
2023-01-31T07:38:33.032Z,37.60
2023-01-31T07:41:01.559Z,47.40
2023-01-31T07:43:30.043Z,47.30
2023-01-31T07:45:58.216Z,48.70
2023-01-31T07:48:26.510Z,49.00
2023-01-31T07:51:00.209Z,41.00
2023-01-31T07:53:30.295Z,38.30
2023-01-31T07:56:11.883Z,35.80
2023-01-31T07:58:41.517Z,35.80
2023-01-31T08:01:36.800Z,35.00
2023-01-31T08:04:21.720Z,37.60
2023-01-31T08:06:53.070Z,41.40
2023-01-31T08:09:21.488Z,38.00
2023-01-31T08:11:50.874Z,35.70
2023-01-31T08:14:23.798Z,36.50
2023-01-31T08:16:52.602Z,34.30
2023-01-31T08:19:20.733Z,33.30
2023-01-31T08:21:49.099Z,31.20
2023-01-31T08:24:17.457Z,37.50
2023-01-31T08:26:45.527Z,37.70
2023-01-31T08:29:13.636Z,36.70
2023-01-31T08:31:42.528Z,36.40
2023-01-31T08:34:10.678Z,35.20
2023-01-31T08:36:38.794Z,35.70
2023-01-31T08:39:06.965Z,38.80
2023-01-31T08:41:36.963Z,44.00
2023-01-31T08:44:05.953Z,47.20
2023-01-31T08:46:35.462Z,47.60
2023-01-31T08:49:05.901Z,40.90
2023-01-31T08:51:35.398Z,40.70
2023-01-31T08:54:05.609Z,41.00
2023-01-31T08:56:34.153Z,45.00
2023-01-31T08:59:02.391Z,43.80
2023-01-31T09:01:30.528Z,40.60
2023-01-31T09:03:58.765Z,40.60
2023-01-31T09:06:27.737Z,37.20
2023-01-31T09:09:00.017Z,33.40
2023-01-31T09:11:29.003Z,36.80
2023-01-31T09:13:57.633Z,37.50
2023-01-31T09:16:26.132Z,38.20
2023-01-31T09:18:54.756Z,36.00
2023-01-31T09:21:23.755Z,40.50
2023-01-31T09:24:02.319Z,40.90
2023-01-31T09:26:31.366Z,39.10
2023-01-31T09:29:01.830Z,43.50
2023-01-31T09:31:30.439Z,45.80
2023-01-31T09:33:59.199Z,47.80
2023-01-31T09:36:28.538Z,47.30
2023-01-31T09:38:57.245Z,51.90
2023-01-31T09:41:52.040Z,45.40
2023-01-31T09:44:23.783Z,41.40
2023-01-31T09:46:57.981Z,41.90
2023-01-31T09:49:29.705Z,43.60
2023-01-31T09:52:12.829Z,40.50
2023-01-31T09:54:41.115Z,44.50
2023-01-31T09:57:18.165Z,45.60
2023-01-31T10:00:32.801Z,52.80
2023-01-31T10:03:26.164Z,45.70
2023-01-31T13:26:07.510Z,47.90
2023-01-31T13:30:42.781Z,53.70
2023-01-31T13:39:20.744Z,36.20
2023-01-31T13:51:42.199Z,37.10
2023-01-31T13:59:48.507Z,36.60
2023-01-31T14:11:36.915Z,49.90
2023-01-31T14:23:41.078Z,51.00
2023-01-31T14:35:17.996Z,46.00
2023-01-31T14:43:51.581Z,48.20
2023-01-31T14:56:11.626Z,47.30
2023-01-31T15:08:14.809Z,43.90
2023-01-31T15:20:06.722Z,48.40
2023-01-31T15:28:28.621Z,64.00
2023-01-31T15:32:54.980Z,65.70
2023-01-31T15:44:59.701Z,47.10
2023-01-31T15:56:44.698Z,45.50
2023-01-31T16:08:21.664Z,77.60
2023-01-31T16:16:40.458Z,106.40
2023-01-31T16:25:11.773Z,94.10
2023-01-31T16:36:49.227Z,67.70
2023-01-31T16:48:20.828Z,75.30
2023-01-31T17:00:32.872Z,73.60
2023-01-31T17:12:05.223Z,56.60
2023-01-31T17:23:43.763Z,46.60
2023-01-31T17:35:24.913Z,61.90
2023-01-31T17:47:02.333Z,57.80
2023-01-31T17:59:25.269Z,69.10
2023-01-31T18:11:16.729Z,48.00
2023-01-31T18:22:53.407Z,44.60
2023-01-31T18:34:41.247Z,40.60
2023-01-31T18:46:35.408Z,33.10
2023-01-31T18:58:12.444Z,32.30
2023-01-31T22:26:09.925Z,18.10
2023-01-31T22:28:38.127Z,16.30
2023-01-31T22:31:07.081Z,16.70
2023-01-31T22:33:36.941Z,16.90
2023-01-31T22:36:05.618Z,18.40
2023-01-31T22:38:33.633Z,22.60
2023-01-31T22:41:05.297Z,18.40
2023-01-31T22:43:36.714Z,18.30
2023-01-31T22:46:06.150Z,19.40
2023-01-31T22:48:35.080Z,18.70
2023-01-31T22:51:05.519Z,19.90
2023-01-31T22:53:35.406Z,18.60
2023-01-31T22:56:25.271Z,19.90
2023-01-31T22:58:57.732Z,16.40
2023-01-31T23:01:27.407Z,19.00
2023-01-31T23:03:56.972Z,20.40
2023-01-31T23:06:24.953Z,18.50
2023-01-31T23:08:53.189Z,19.50
2023-01-31T23:11:21.258Z,18.80
2023-01-31T23:13:50.687Z,18.10
2023-01-31T23:16:42.417Z,19.00
2023-01-31T23:19:10.672Z,18.40
2023-01-31T23:21:40.345Z,20.60
2023-01-31T23:24:08.601Z,20.40
2023-01-31T23:26:36.736Z,18.60
2023-01-31T23:29:05.160Z,18.00
2023-01-31T23:31:34.346Z,20.30
2023-01-31T23:34:02.483Z,21.90
2023-01-31T23:36:30.408Z,22.20
2023-01-31T23:38:58.306Z,20.80
2023-01-31T23:41:26.178Z,20.20
2023-01-31T23:43:54.169Z,19.60
2023-01-31T23:46:22.240Z,21.50
2023-01-31T23:48:50.253Z,19.90
2023-01-31T23:51:18.215Z,20.70
2023-01-31T23:53:48.755Z,19.40
2023-01-31T23:56:17.019Z,18.70
2023-01-31T23:58:45.122Z,17.00
